sensor_id;sensor_type;location;lat;lon;timestamp;P1;durP1;ratioP1;P2;durP2;ratioP2
41099;SDS011;26844;53.686;-6.346;2023-01-16T00:00:25;65.95;;;62.60;;
41099;SDS011;26844;53.686;-6.346;2023-01-16T00:02:50;84.40;;;80.40;;
41099;SDS011;26844;53.686;-6.346;2023-01-16T00:05:16;75.55;;;71.95;;
41099;SDS011;26844;53.686;-6.346;2023-01-16T00:07:41;83.18;;;79.13;;
41099;SDS011;26844;53.686;-6.346;2023-01-16T00:10:06;74.32;;;70.82;;
41099;SDS011;26844;53.686;-6.346;2023-01-16T00:12:32;51.38;;;48.92;;
41099;SDS011;26844;53.686;-6.346;2023-01-16T00:14:57;56.35;;;53.55;;
41099;SDS011;26844;53.686;-6.346;2023-01-16T00:17:22;63.85;;;60.55;;
41099;SDS011;26844;53.686;-6.346;2023-01-16T00:19:47;56.83;;;53.90;;
41099;SDS011;26844;53.686;-6.346;2023-01-16T00:22:13;74.22;;;70.70;;
41099;SDS011;26844;53.686;-6.346;2023-01-16T00:24:38;69.50;;;65.68;;
41099;SDS011;26844;53.686;-6.346;2023-01-16T00:27:03;61.58;;;58.53;;
41099;SDS011;26844;53.686;-6.346;2023-01-16T00:29:28;76.97;;;73.32;;
41099;SDS011;26844;53.686;-6.346;2023-01-16T00:31:54;72.85;;;68.82;;
41099;SDS011;26844;53.686;-6.346;2023-01-16T00:34:19;68.57;;;65.05;;
41099;SDS011;26844;53.686;-6.346;2023-01-16T00:36:44;82.05;;;77.72;;
41099;SDS011;26844;53.686;-6.346;2023-01-16T00:39:10;86.95;;;82.80;;
41099;SDS011;26844;53.686;-6.346;2023-01-16T00:41:35;96.63;;;91.97;;
41099;SDS011;26844;53.686;-6.346;2023-01-16T00:44:00;97.43;;;92.32;;
41099;SDS011;26844;53.686;-6.346;2023-01-16T00:46:26;101.30;;;96.43;;
41099;SDS011;26844;53.686;-6.346;2023-01-16T00:48:51;93.93;;;89.10;;
41099;SDS011;26844;53.686;-6.346;2023-01-16T00:51:16;126.40;;;120.40;;
41099;SDS011;26844;53.686;-6.346;2023-01-16T00:53:42;114.13;;;108.50;;
41099;SDS011;26844;53.686;-6.346;2023-01-16T00:56:07;95.80;;;91.25;;
41099;SDS011;26844;53.686;-6.346;2023-01-16T00:58:32;122.55;;;117.00;;
41099;SDS011;26844;53.686;-6.346;2023-01-16T01:00:59;124.10;;;118.22;;
41099;SDS011;26844;53.686;-6.346;2023-01-16T01:03:25;99.05;;;94.32;;
41099;SDS011;26844;53.686;-6.346;2023-01-16T01:05:51;72.68;;;69.13;;
41099;SDS011;26844;53.686;-6.346;2023-01-16T01:08:18;50.22;;;47.72;;
41099;SDS011;26844;53.686;-6.346;2023-01-16T01:10:43;112.45;;;107.07;;
41099;SDS011;26844;53.686;-6.346;2023-01-16T01:13:08;123.45;;;117.60;;
41099;SDS011;26844;53.686;-6.346;2023-01-16T01:15:33;71.10;;;67.57;;
41099;SDS011;26844;53.686;-6.346;2023-01-16T01:17:59;73.75;;;70.30;;
41099;SDS011;26844;53.686;-6.346;2023-01-16T01:20:24;87.82;;;83.80;;
41099;SDS011;26844;53.686;-6.346;2023-01-16T01:22:50;68.97;;;65.45;;
41099;SDS011;26844;53.686;-6.346;2023-01-16T01:25:16;68.00;;;64.72;;
41099;SDS011;26844;53.686;-6.346;2023-01-16T01:27:41;93.90;;;89.55;;
41099;SDS011;26844;53.686;-6.346;2023-01-16T01:30:06;80.22;;;76.30;;
41099;SDS011;26844;53.686;-6.346;2023-01-16T01:32:32;108.80;;;103.47;;
41099;SDS011;26844;53.686;-6.346;2023-01-16T01:34:57;115.40;;;109.80;;
41099;SDS011;26844;53.686;-6.346;2023-01-16T01:37:23;91.60;;;87.40;;
41099;SDS011;26844;53.686;-6.346;2023-01-16T01:39:49;68.55;;;65.38;;
41099;SDS011;26844;53.686;-6.346;2023-01-16T01:42:15;71.40;;;67.90;;
41099;SDS011;26844;53.686;-6.346;2023-01-16T01:45:09;79.38;;;75.80;;
41099;SDS011;26844;53.686;-6.346;2023-01-16T01:47:37;71.03;;;67.68;;
41099;SDS011;26844;53.686;-6.346;2023-01-16T01:50:11;52.90;;;50.50;;
41099;SDS011;26844;53.686;-6.346;2023-01-16T01:52:38;41.88;;;39.53;;
41099;SDS011;26844;53.686;-6.346;2023-01-16T01:55:05;48.17;;;45.78;;
41099;SDS011;26844;53.686;-6.346;2023-01-16T01:57:42;47.88;;;45.45;;
41099;SDS011;26844;53.686;-6.346;2023-01-16T02:00:20;53.67;;;51.05;;
41099;SDS011;26844;53.686;-6.346;2023-01-16T02:02:51;59.03;;;56.08;;
41099;SDS011;26844;53.686;-6.346;2023-01-16T02:05:19;72.13;;;68.72;;
41099;SDS011;26844;53.686;-6.346;2023-01-16T02:07:46;40.42;;;38.53;;
41099;SDS011;26844;53.686;-6.346;2023-01-16T02:10:14;40.17;;;38.30;;
41099;SDS011;26844;53.686;-6.346;2023-01-16T02:12:43;35.28;;;33.58;;
41099;SDS011;26844;53.686;-6.346;2023-01-16T02:15:08;70.57;;;67.07;;
41099;SDS011;26844;53.686;-6.346;2023-01-16T02:17:34;42.90;;;40.88;;
41099;SDS011;26844;53.686;-6.346;2023-01-16T02:38:55;39.88;;;37.97;;
41099;SDS011;26844;53.686;-6.346;2023-01-16T02:43:57;55.75;;;53.25;;
41099;SDS011;26844;53.686;-6.346;2023-01-16T02:46:35;88.00;;;83.95;;
41099;SDS011;26844;53.686;-6.346;2023-01-16T02:49:09;79.07;;;75.63;;
41099;SDS011;26844;53.686;-6.346;2023-01-16T02:51:56;50.47;;;48.22;;
41099;SDS011;26844;53.686;-6.346;2023-01-16T02:54:31;48.10;;;45.90;;
41099;SDS011;26844;53.686;-6.346;2023-01-16T02:56:59;50.00;;;47.70;;
41099;SDS011;26844;53.686;-6.346;2023-01-16T02:59:27;37.55;;;35.78;;
41099;SDS011;26844;53.686;-6.346;2023-01-16T03:01:55;41.67;;;39.88;;
41099;SDS011;26844;53.686;-6.346;2023-01-16T03:22:47;50.17;;;48.00;;
41099;SDS011;26844;53.686;-6.346;2023-01-16T03:30:21;88.50;;;84.72;;
41099;SDS011;26844;53.686;-6.346;2023-01-16T03:32:50;37.55;;;35.95;;
41099;SDS011;26844;53.686;-6.346;2023-01-16T03:35:22;65.55;;;62.42;;
41099;SDS011;26844;53.686;-6.346;2023-01-16T03:37:51;89.88;;;86.00;;
41099;SDS011;26844;53.686;-6.346;2023-01-16T03:40:22;102.45;;;98.03;;
41099;SDS011;26844;53.686;-6.346;2023-01-16T03:42:56;55.70;;;53.33;;
41099;SDS011;26844;53.686;-6.346;2023-01-16T03:47:59;78.35;;;74.95;;
41099;SDS011;26844;53.686;-6.346;2023-01-16T03:50:25;73.75;;;70.57;;
41099;SDS011;26844;53.686;-6.346;2023-01-16T03:52:52;98.55;;;94.32;;
41099;SDS011;26844;53.686;-6.346;2023-01-16T03:55:34;104.53;;;100.00;;
41099;SDS011;26844;53.686;-6.346;2023-01-16T03:58:07;146.10;;;139.77;;
41099;SDS011;26844;53.686;-6.346;2023-01-16T04:00:57;146.88;;;140.50;;
41099;SDS011;26844;53.686;-6.346;2023-01-16T04:03:21;192.73;;;184.43;;
41099;SDS011;26844;53.686;-6.346;2023-01-16T04:05:57;192.95;;;184.60;;
41099;SDS011;26844;53.686;-6.346;2023-01-16T04:08:28;187.60;;;179.18;;
41099;SDS011;26844;53.686;-6.346;2023-01-16T04:10:56;178.80;;;171.07;;
41099;SDS011;26844;53.686;-6.346;2023-01-16T04:13:24;178.07;;;170.02;;
41099;SDS011;26844;53.686;-6.346;2023-01-16T04:15:51;226.20;;;216.63;;
41099;SDS011;26844;53.686;-6.346;2023-01-16T04:18:18;186.55;;;178.07;;
41099;SDS011;26844;53.686;-6.346;2023-01-16T04:20:44;189.52;;;181.40;;
41099;SDS011;26844;53.686;-6.346;2023-01-16T04:23:11;96.65;;;92.50;;
41099;SDS011;26844;53.686;-6.346;2023-01-16T04:25:37;86.03;;;82.30;;
41099;SDS011;26844;53.686;-6.346;2023-01-16T04:28:02;86.68;;;82.95;;
41099;SDS011;26844;53.686;-6.346;2023-01-16T04:30:27;120.05;;;114.93;;
41099;SDS011;26844;53.686;-6.346;2023-01-16T04:32:53;122.45;;;117.20;;
41099;SDS011;26844;53.686;-6.346;2023-01-16T04:35:18;177.48;;;169.73;;
41099;SDS011;26844;53.686;-6.346;2023-01-16T04:37:43;175.23;;;167.85;;
41099;SDS011;26844;53.686;-6.346;2023-01-16T04:40:09;169.27;;;161.98;;
41099;SDS011;26844;53.686;-6.346;2023-01-16T04:42:34;143.15;;;137.02;;
41099;SDS011;26844;53.686;-6.346;2023-01-16T04:45:00;107.53;;;102.90;;
41099;SDS011;26844;53.686;-6.346;2023-01-16T04:47:25;154.25;;;147.52;;
41099;SDS011;26844;53.686;-6.346;2023-01-16T04:49:50;199.10;;;190.57;;
41099;SDS011;26844;53.686;-6.346;2023-01-16T04:52:15;208.05;;;199.10;;
41099;SDS011;26844;53.686;-6.346;2023-01-16T04:54:41;209.15;;;199.75;;
41099;SDS011;26844;53.686;-6.346;2023-01-16T04:57:06;199.35;;;190.60;;
41099;SDS011;26844;53.686;-6.346;2023-01-16T04:59:31;195.65;;;186.93;;
41099;SDS011;26844;53.686;-6.346;2023-01-16T05:01:57;178.98;;;171.25;;
41099;SDS011;26844;53.686;-6.346;2023-01-16T05:04:22;154.43;;;147.80;;
41099;SDS011;26844;53.686;-6.346;2023-01-16T05:06:47;179.52;;;171.80;;
41099;SDS011;26844;53.686;-6.346;2023-01-16T05:09:12;134.40;;;128.57;;
41099;SDS011;26844;53.686;-6.346;2023-01-16T05:11:38;165.40;;;158.32;;
41099;SDS011;26844;53.686;-6.346;2023-01-16T05:14:03;212.75;;;203.65;;
41099;SDS011;26844;53.686;-6.346;2023-01-16T05:16:33;170.55;;;162.90;;
41099;SDS011;26844;53.686;-6.346;2023-01-16T05:18:58;202.02;;;193.45;;
41099;SDS011;26844;53.686;-6.346;2023-01-16T05:21:24;202.18;;;193.27;;
41099;SDS011;26844;53.686;-6.346;2023-01-16T05:23:49;176.35;;;168.88;;
41099;SDS011;26844;53.686;-6.346;2023-01-16T05:26:14;147.60;;;141.27;;
41099;SDS011;26844;53.686;-6.346;2023-01-16T05:28:39;152.20;;;145.65;;
41099;SDS011;26844;53.686;-6.346;2023-01-16T05:31:05;227.75;;;218.02;;
41099;SDS011;26844;53.686;-6.346;2023-01-16T05:33:30;196.82;;;188.30;;
41099;SDS011;26844;53.686;-6.346;2023-01-16T05:35:55;177.55;;;169.60;;
41099;SDS011;26844;53.686;-6.346;2023-01-16T05:38:21;186.60;;;178.50;;
41099;SDS011;26844;53.686;-6.346;2023-01-16T05:40:46;145.45;;;138.88;;
41099;SDS011;26844;53.686;-6.346;2023-01-16T05:43:12;112.72;;;107.47;;
41099;SDS011;26844;53.686;-6.346;2023-01-16T05:45:37;130.27;;;124.70;;
41099;SDS011;26844;53.686;-6.346;2023-01-16T05:48:03;137.23;;;131.27;;
41099;SDS011;26844;53.686;-6.346;2023-01-16T05:50:29;131.52;;;125.85;;
41099;SDS011;26844;53.686;-6.346;2023-01-16T05:52:54;110.38;;;105.65;;
41099;SDS011;26844;53.686;-6.346;2023-01-16T05:55:19;109.03;;;104.25;;
41099;SDS011;26844;53.686;-6.346;2023-01-16T05:57:44;125.55;;;120.10;;
41099;SDS011;26844;53.686;-6.346;2023-01-16T06:00:10;97.50;;;93.15;;
41099;SDS011;26844;53.686;-6.346;2023-01-16T06:02:35;122.97;;;117.18;;
41099;SDS011;26844;53.686;-6.346;2023-01-16T06:05:01;119.40;;;114.13;;
41099;SDS011;26844;53.686;-6.346;2023-01-16T06:07:26;69.00;;;66.05;;
41099;SDS011;26844;53.686;-6.346;2023-01-16T06:09:51;69.22;;;66.30;;
41099;SDS011;26844;53.686;-6.346;2023-01-16T06:12:18;91.60;;;87.57;;
41099;SDS011;26844;53.686;-6.346;2023-01-16T06:14:43;85.38;;;81.72;;
41099;SDS011;26844;53.686;-6.346;2023-01-16T06:17:09;95.97;;;91.78;;
41099;SDS011;26844;53.686;-6.346;2023-01-16T06:19:34;50.97;;;48.83;;
41099;SDS011;26844;53.686;-6.346;2023-01-16T06:21:59;64.18;;;61.45;;
41099;SDS011;26844;53.686;-6.346;2023-01-16T06:24:24;85.28;;;81.60;;
41099;SDS011;26844;53.686;-6.346;2023-01-16T06:26:50;106.95;;;102.22;;
41099;SDS011;26844;53.686;-6.346;2023-01-16T06:29:15;106.28;;;101.47;;
41099;SDS011;26844;53.686;-6.346;2023-01-16T06:31:40;66.70;;;63.53;;
41099;SDS011;26844;53.686;-6.346;2023-01-16T06:34:06;72.45;;;68.93;;
41099;SDS011;26844;53.686;-6.346;2023-01-16T06:36:32;59.25;;;56.50;;
41099;SDS011;26844;53.686;-6.346;2023-01-16T06:38:57;50.30;;;47.95;;
41099;SDS011;26844;53.686;-6.346;2023-01-16T06:41:22;48.65;;;46.60;;
41099;SDS011;26844;53.686;-6.346;2023-01-16T06:43:48;90.95;;;87.00;;
41099;SDS011;26844;53.686;-6.346;2023-01-16T06:46:13;35.30;;;33.80;;
41099;SDS011;26844;53.686;-6.346;2023-01-16T06:48:38;38.53;;;36.63;;
41099;SDS011;26844;53.686;-6.346;2023-01-16T06:51:06;46.67;;;44.50;;
41099;SDS011;26844;53.686;-6.346;2023-01-16T06:53:31;72.88;;;69.53;;
41099;SDS011;26844;53.686;-6.346;2023-01-16T06:55:56;53.22;;;50.67;;
41099;SDS011;26844;53.686;-6.346;2023-01-16T06:58:21;30.25;;;28.85;;
41099;SDS011;26844;53.686;-6.346;2023-01-16T07:00:47;46.58;;;44.53;;
41099;SDS011;26844;53.686;-6.346;2023-01-16T07:03:16;21.77;;;20.77;;
41099;SDS011;26844;53.686;-6.346;2023-01-16T07:05:41;23.65;;;22.30;;
41099;SDS011;26844;53.686;-6.346;2023-01-16T07:08:06;15.77;;;15.07;;
41099;SDS011;26844;53.686;-6.346;2023-01-16T07:10:32;22.80;;;21.70;;
41099;SDS011;26844;53.686;-6.346;2023-01-16T07:12:57;41.40;;;39.63;;
41099;SDS011;26844;53.686;-6.346;2023-01-16T07:15:22;35.85;;;34.30;;
41099;SDS011;26844;53.686;-6.346;2023-01-16T07:18:08;42.80;;;41.03;;
41099;SDS011;26844;53.686;-6.346;2023-01-16T07:21:11;60.95;;;57.85;;
41099;SDS011;26844;53.686;-6.346;2023-01-16T07:24:05;39.13;;;37.45;;
41099;SDS011;26844;53.686;-6.346;2023-01-16T07:26:32;21.45;;;20.55;;
41099;SDS011;26844;53.686;-6.346;2023-01-16T07:28:58;36.83;;;34.83;;
41099;SDS011;26844;53.686;-6.346;2023-01-16T07:31:24;41.33;;;39.15;;
41099;SDS011;26844;53.686;-6.346;2023-01-16T07:33:49;36.83;;;35.13;;
41099;SDS011;26844;53.686;-6.346;2023-01-16T07:36:14;32.97;;;31.58;;
41099;SDS011;26844;53.686;-6.346;2023-01-16T07:38:40;76.30;;;72.60;;
41099;SDS011;26844;53.686;-6.346;2023-01-16T07:41:05;58.17;;;55.60;;
41099;SDS011;26844;53.686;-6.346;2023-01-16T07:43:30;47.55;;;45.38;;
41099;SDS011;26844;53.686;-6.346;2023-01-16T07:45:55;41.63;;;39.45;;
41099;SDS011;26844;53.686;-6.346;2023-01-16T07:48:21;75.93;;;72.38;;
41099;SDS011;26844;53.686;-6.346;2023-01-16T07:50:54;89.75;;;85.90;;
41099;SDS011;26844;53.686;-6.346;2023-01-16T07:53:20;126.05;;;120.45;;
41099;SDS011;26844;53.686;-6.346;2023-01-16T07:55:48;124.00;;;118.65;;
41099;SDS011;26844;53.686;-6.346;2023-01-16T07:58:13;190.27;;;182.18;;
41099;SDS011;26844;53.686;-6.346;2023-01-16T08:00:38;140.77;;;134.57;;
41099;SDS011;26844;53.686;-6.346;2023-01-16T08:03:04;73.07;;;69.72;;
41099;SDS011;26844;53.686;-6.346;2023-01-16T08:05:29;84.50;;;80.90;;
41099;SDS011;26844;53.686;-6.346;2023-01-16T08:07:54;72.60;;;69.47;;
41099;SDS011;26844;53.686;-6.346;2023-01-16T08:10:20;56.08;;;53.60;;
41099;SDS011;26844;53.686;-6.346;2023-01-16T08:12:45;145.80;;;139.25;;
41099;SDS011;26844;53.686;-6.346;2023-01-16T08:15:10;130.45;;;124.57;;
41099;SDS011;26844;53.686;-6.346;2023-01-16T08:17:37;43.88;;;41.67;;
41099;SDS011;26844;53.686;-6.346;2023-01-16T08:20:02;30.57;;;28.80;;
41099;SDS011;26844;53.686;-6.346;2023-01-16T08:22:28;43.40;;;41.25;;
41099;SDS011;26844;53.686;-6.346;2023-01-16T08:24:53;42.08;;;40.13;;
41099;SDS011;26844;53.686;-6.346;2023-01-16T08:27:18;34.92;;;33.30;;
41099;SDS011;26844;53.686;-6.346;2023-01-16T08:29:44;44.38;;;42.22;;
41099;SDS011;26844;53.686;-6.346;2023-01-16T08:32:09;189.55;;;180.85;;
41099;SDS011;26844;53.686;-6.346;2023-01-16T08:34:35;220.48;;;210.35;;
41099;SDS011;26844;53.686;-6.346;2023-01-16T08:37:00;196.18;;;186.40;;
41099;SDS011;26844;53.686;-6.346;2023-01-16T08:39:27;187.88;;;179.27;;
41099;SDS011;26844;53.686;-6.346;2023-01-16T08:41:53;396.05;;;377.60;;
41099;SDS011;26844;53.686;-6.346;2023-01-16T08:44:37;308.85;;;294.33;;
41099;SDS011;26844;53.686;-6.346;2023-01-16T08:47:24;18.92;;;17.42;;
41099;SDS011;26844;53.686;-6.346;2023-01-16T08:50:15;52.72;;;50.42;;
41099;SDS011;26844;53.686;-6.346;2023-01-16T08:53:00;42.35;;;40.42;;
41099;SDS011;26844;53.686;-6.346;2023-01-16T08:55:25;40.47;;;38.78;;
41099;SDS011;26844;53.686;-6.346;2023-01-16T08:57:50;42.30;;;40.50;;
41099;SDS011;26844;53.686;-6.346;2023-01-16T09:00:16;43.67;;;41.83;;
41099;SDS011;26844;53.686;-6.346;2023-01-16T09:02:43;51.80;;;49.60;;
41099;SDS011;26844;53.686;-6.346;2023-01-16T09:05:10;56.55;;;54.17;;
41099;SDS011;26844;53.686;-6.346;2023-01-16T09:07:35;49.50;;;47.40;;
41099;SDS011;26844;53.686;-6.346;2023-01-16T09:10:00;37.97;;;36.38;;
41099;SDS011;26844;53.686;-6.346;2023-01-16T09:12:26;32.03;;;30.52;;
41099;SDS011;26844;53.686;-6.346;2023-01-16T09:15:10;31.30;;;29.83;;
41099;SDS011;26844;53.686;-6.346;2023-01-16T09:17:35;20.63;;;19.55;;
41099;SDS011;26844;53.686;-6.346;2023-01-16T09:20:00;53.40;;;50.92;;
41099;SDS011;26844;53.686;-6.346;2023-01-16T09:22:26;35.17;;;33.72;;
41099;SDS011;26844;53.686;-6.346;2023-01-16T09:24:51;67.90;;;64.68;;
41099;SDS011;26844;53.686;-6.346;2023-01-16T09:27:17;39.35;;;37.55;;
41099;SDS011;26844;53.686;-6.346;2023-01-16T09:29:43;42.13;;;39.83;;
41099;SDS011;26844;53.686;-6.346;2023-01-16T09:32:08;26.48;;;25.38;;
41099;SDS011;26844;53.686;-6.346;2023-01-16T09:34:36;19.17;;;18.33;;
41099;SDS011;26844;53.686;-6.346;2023-01-16T09:37:02;26.33;;;25.02;;
41099;SDS011;26844;53.686;-6.346;2023-01-16T09:39:28;21.88;;;20.83;;
41099;SDS011;26844;53.686;-6.346;2023-01-16T09:44:52;20.15;;;19.23;;
41099;SDS011;26844;53.686;-6.346;2023-01-16T09:47:20;19.00;;;18.25;;
41099;SDS011;26844;53.686;-6.346;2023-01-16T09:49:48;19.10;;;18.17;;
41099;SDS011;26844;53.686;-6.346;2023-01-16T09:52:16;21.35;;;20.48;;
41099;SDS011;26844;53.686;-6.346;2023-01-16T09:55:03;17.67;;;16.95;;
41099;SDS011;26844;53.686;-6.346;2023-01-16T09:57:48;18.50;;;17.67;;
41099;SDS011;26844;53.686;-6.346;2023-01-16T10:00:32;20.50;;;19.67;;
41099;SDS011;26844;53.686;-6.346;2023-01-16T10:02:59;20.20;;;19.33;;
41099;SDS011;26844;53.686;-6.346;2023-01-16T10:05:26;22.30;;;21.00;;
41099;SDS011;26844;53.686;-6.346;2023-01-16T10:08:14;45.75;;;43.63;;
41099;SDS011;26844;53.686;-6.346;2023-01-16T10:10:54;18.50;;;17.80;;
41099;SDS011;26844;53.686;-6.346;2023-01-16T10:18:20;40.20;;;38.33;;
41099;SDS011;26844;53.686;-6.346;2023-01-16T10:20:52;17.35;;;16.55;;
41099;SDS011;26844;53.686;-6.346;2023-01-16T10:26:07;19.40;;;18.30;;
41099;SDS011;26844;53.686;-6.346;2023-01-16T10:28:54;32.45;;;31.10;;
41099;SDS011;26844;53.686;-6.346;2023-01-16T10:32:24;23.60;;;22.48;;
41099;SDS011;26844;53.686;-6.346;2023-01-16T10:34:23;31.92;;;30.58;;
41099;SDS011;26844;53.686;-6.346;2023-01-16T10:36:50;40.55;;;38.88;;
41099;SDS011;26844;53.686;-6.346;2023-01-16T10:39:17;54.83;;;52.53;;
41099;SDS011;26844;53.686;-6.346;2023-01-16T10:41:47;55.72;;;53.40;;
41099;SDS011;26844;53.686;-6.346;2023-01-16T10:47:35;36.05;;;34.40;;
41099;SDS011;26844;53.686;-6.346;2023-01-16T10:50:20;46.35;;;44.35;;
41099;SDS011;26844;53.686;-6.346;2023-01-16T10:52:46;75.78;;;72.55;;
41099;SDS011;26844;53.686;-6.346;2023-01-16T10:55:11;69.65;;;66.50;;
41099;SDS011;26844;53.686;-6.346;2023-01-16T10:57:40;20.98;;;19.50;;
41099;SDS011;26844;53.686;-6.346;2023-01-16T11:00:29;14.27;;;13.68;;
41099;SDS011;26844;53.686;-6.346;2023-01-16T11:03:04;16.90;;;15.93;;
41099;SDS011;26844;53.686;-6.346;2023-01-16T11:05:34;9.40;;;8.98;;
41099;SDS011;26844;53.686;-6.346;2023-01-16T11:10:32;12.88;;;12.20;;
41099;SDS011;26844;53.686;-6.346;2023-01-16T11:12:58;20.77;;;19.63;;
41099;SDS011;26844;53.686;-6.346;2023-01-16T11:15:59;10.50;;;9.98;;
41099;SDS011;26844;53.686;-6.346;2023-01-16T11:18:42;11.15;;;10.65;;
41099;SDS011;26844;53.686;-6.346;2023-01-16T11:23:40;17.63;;;16.85;;
41099;SDS011;26844;53.686;-6.346;2023-01-16T11:26:06;20.05;;;19.15;;
41099;SDS011;26844;53.686;-6.346;2023-01-16T11:28:32;12.80;;;12.30;;
41099;SDS011;26844;53.686;-6.346;2023-01-16T11:31:12;20.88;;;20.00;;
41099;SDS011;26844;53.686;-6.346;2023-01-16T11:33:40;26.00;;;24.83;;
41099;SDS011;26844;53.686;-6.346;2023-01-16T11:36:08;28.60;;;27.40;;
41099;SDS011;26844;53.686;-6.346;2023-01-16T11:38:35;14.40;;;13.80;;
41099;SDS011;26844;53.686;-6.346;2023-01-16T11:41:01;22.33;;;21.38;;
41099;SDS011;26844;53.686;-6.346;2023-01-16T11:43:28;63.08;;;60.22;;
41099;SDS011;26844;53.686;-6.346;2023-01-16T11:51:16;21.10;;;20.23;;
41099;SDS011;26844;53.686;-6.346;2023-01-16T11:53:42;37.47;;;35.88;;
41099;SDS011;26844;53.686;-6.346;2023-01-16T12:03:51;52.03;;;49.78;;
41099;SDS011;26844;53.686;-6.346;2023-01-16T12:06:24;30.30;;;28.63;;
41099;SDS011;26844;53.686;-6.346;2023-01-16T12:08:59;41.45;;;39.30;;
41099;SDS011;26844;53.686;-6.346;2023-01-16T12:22:08;50.17;;;47.95;;
41099;SDS011;26844;53.686;-6.346;2023-01-16T12:24:43;41.85;;;39.92;;
41099;SDS011;26844;53.686;-6.346;2023-01-16T12:27:28;33.60;;;32.03;;
41099;SDS011;26844;53.686;-6.346;2023-01-16T12:32:26;33.50;;;32.00;;
41099;SDS011;26844;53.686;-6.346;2023-01-16T12:35:06;51.22;;;49.08;;
41099;SDS011;26844;53.686;-6.346;2023-01-16T12:37:38;69.60;;;66.55;;
41099;SDS011;26844;53.686;-6.346;2023-01-16T12:40:22;25.95;;;24.90;;
41099;SDS011;26844;53.686;-6.346;2023-01-16T12:45:48;51.30;;;49.00;;
41099;SDS011;26844;53.686;-6.346;2023-01-16T12:56:00;37.20;;;35.17;;
41099;SDS011;26844;53.686;-6.346;2023-01-16T12:58:30;41.88;;;40.03;;
41099;SDS011;26844;53.686;-6.346;2023-01-16T13:03:39;18.20;;;17.48;;
41099;SDS011;26844;53.686;-6.346;2023-01-16T13:06:06;7.65;;;7.35;;
41099;SDS011;26844;53.686;-6.346;2023-01-16T13:08:39;24.15;;;22.70;;
41099;SDS011;26844;53.686;-6.346;2023-01-16T13:11:09;8.13;;;7.72;;
41099;SDS011;26844;53.686;-6.346;2023-01-16T13:13:55;39.63;;;37.88;;
41099;SDS011;26844;53.686;-6.346;2023-01-16T13:16:27;24.60;;;23.55;;
41099;SDS011;26844;53.686;-6.346;2023-01-16T13:19:00;33.28;;;31.73;;
41099;SDS011;26844;53.686;-6.346;2023-01-16T13:21:28;17.92;;;17.00;;
41099;SDS011;26844;53.686;-6.346;2023-01-16T13:23:54;21.73;;;20.48;;
41099;SDS011;26844;53.686;-6.346;2023-01-16T13:26:23;38.50;;;36.33;;
41099;SDS011;26844;53.686;-6.346;2023-01-16T13:29:10;22.92;;;21.55;;
41099;SDS011;26844;53.686;-6.346;2023-01-16T13:34:14;29.10;;;27.33;;
41099;SDS011;26844;53.686;-6.346;2023-01-16T13:42:08;21.70;;;20.63;;
41099;SDS011;26844;53.686;-6.346;2023-01-16T13:44:35;32.25;;;30.85;;
41099;SDS011;26844;53.686;-6.346;2023-01-16T13:47:21;53.20;;;50.90;;
41099;SDS011;26844;53.686;-6.346;2023-01-16T13:52:24;41.22;;;39.25;;
41099;SDS011;26844;53.686;-6.346;2023-01-16T13:54:52;24.10;;;23.08;;
41099;SDS011;26844;53.686;-6.346;2023-01-16T13:57:19;25.90;;;24.73;;
41099;SDS011;26844;53.686;-6.346;2023-01-16T14:13:31;83.20;;;79.57;;
41099;SDS011;26844;53.686;-6.346;2023-01-16T14:16:00;17.40;;;16.70;;
41099;SDS011;26844;53.686;-6.346;2023-01-16T14:24:24;29.52;;;28.05;;
41099;SDS011;26844;53.686;-6.346;2023-01-16T14:26:50;36.92;;;35.22;;
41099;SDS011;26844;53.686;-6.346;2023-01-16T14:31:44;35.33;;;33.58;;
41099;SDS011;26844;53.686;-6.346;2023-01-16T14:34:16;37.40;;;35.80;;
41099;SDS011;26844;53.686;-6.346;2023-01-16T14:36:42;59.90;;;57.28;;
41099;SDS011;26844;53.686;-6.346;2023-01-16T14:41:55;7.07;;;6.68;;
41099;SDS011;26844;53.686;-6.346;2023-01-16T14:44:57;7.43;;;7.13;;
41099;SDS011;26844;53.686;-6.346;2023-01-16T14:47:52;8.45;;;6.60;;
41099;SDS011;26844;53.686;-6.346;2023-01-16T14:50:41;6.53;;;6.13;;
41099;SDS011;26844;53.686;-6.346;2023-01-16T14:53:26;5.68;;;5.25;;
41099;SDS011;26844;53.686;-6.346;2023-01-16T14:56:21;7.45;;;7.07;;
41099;SDS011;26844;53.686;-6.346;2023-01-16T14:59:10;5.10;;;4.80;;
41099;SDS011;26844;53.686;-6.346;2023-01-16T15:01:39;5.22;;;4.93;;
41099;SDS011;26844;53.686;-6.346;2023-01-16T15:04:23;9.32;;;8.65;;
41099;SDS011;26844;53.686;-6.346;2023-01-16T15:06:55;5.35;;;5.03;;
41099;SDS011;26844;53.686;-6.346;2023-01-16T15:09:22;7.10;;;6.70;;
41099;SDS011;26844;53.686;-6.346;2023-01-16T15:11:52;5.50;;;5.20;;
41099;SDS011;26844;53.686;-6.346;2023-01-16T15:14:19;5.20;;;5.00;;
41099;SDS011;26844;53.686;-6.346;2023-01-16T15:22:48;7.25;;;5.18;;
41099;SDS011;26844;53.686;-6.346;2023-01-16T15:27:40;4.93;;;4.53;;
41099;SDS011;26844;53.686;-6.346;2023-01-16T15:30:16;7.68;;;4.82;;
41099;SDS011;26844;53.686;-6.346;2023-01-16T15:32:56;6.38;;;5.95;;
41099;SDS011;26844;53.686;-6.346;2023-01-16T15:35:53;9.00;;;8.50;;
41099;SDS011;26844;53.686;-6.346;2023-01-16T15:38:19;13.00;;;12.18;;
41099;SDS011;26844;53.686;-6.346;2023-01-16T15:40:51;6.05;;;5.60;;
41099;SDS011;26844;53.686;-6.346;2023-01-16T15:43:16;11.98;;;11.20;;
41099;SDS011;26844;53.686;-6.346;2023-01-16T15:46:02;12.02;;;11.43;;
41099;SDS011;26844;53.686;-6.346;2023-01-16T15:48:50;12.70;;;11.75;;
41099;SDS011;26844;53.686;-6.346;2023-01-16T15:51:19;15.95;;;15.18;;
41099;SDS011;26844;53.686;-6.346;2023-01-16T15:53:46;30.02;;;28.73;;
41099;SDS011;26844;53.686;-6.346;2023-01-16T15:58:46;33.10;;;30.98;;
41099;SDS011;26844;53.686;-6.346;2023-01-16T16:01:29;21.92;;;20.98;;
41099;SDS011;26844;53.686;-6.346;2023-01-16T16:03:55;10.05;;;9.50;;
41099;SDS011;26844;53.686;-6.346;2023-01-16T16:06:21;11.60;;;11.10;;
41099;SDS011;26844;53.686;-6.346;2023-01-16T16:08:47;8.52;;;7.97;;
41099;SDS011;26844;53.686;-6.346;2023-01-16T16:11:20;8.05;;;7.65;;
41099;SDS011;26844;53.686;-6.346;2023-01-16T16:14:04;8.32;;;7.80;;
41099;SDS011;26844;53.686;-6.346;2023-01-16T16:17:02;5.13;;;4.75;;
41099;SDS011;26844;53.686;-6.346;2023-01-16T16:19:47;6.75;;;6.45;;
41099;SDS011;26844;53.686;-6.346;2023-01-16T16:22:17;6.75;;;6.22;;
41099;SDS011;26844;53.686;-6.346;2023-01-16T16:25:06;7.45;;;7.13;;
41099;SDS011;26844;53.686;-6.346;2023-01-16T16:27:32;14.02;;;13.32;;
41099;SDS011;26844;53.686;-6.346;2023-01-16T16:29:58;14.32;;;13.40;;
41099;SDS011;26844;53.686;-6.346;2023-01-16T16:32:23;18.70;;;17.50;;
41099;SDS011;26844;53.686;-6.346;2023-01-16T16:34:52;20.65;;;19.58;;
41099;SDS011;26844;53.686;-6.346;2023-01-16T16:37:18;39.40;;;37.30;;
41099;SDS011;26844;53.686;-6.346;2023-01-16T16:50:01;55.65;;;53.25;;
41099;SDS011;26844;53.686;-6.346;2023-01-16T16:54:52;60.00;;;57.30;;
41099;SDS011;26844;53.686;-6.346;2023-01-16T16:57:18;63.33;;;60.47;;
41099;SDS011;26844;53.686;-6.346;2023-01-16T16:59:43;70.28;;;67.22;;
41099;SDS011;26844;53.686;-6.346;2023-01-16T17:02:09;47.90;;;45.80;;
41099;SDS011;26844;53.686;-6.346;2023-01-16T17:04:36;48.40;;;45.78;;